sensor_id;sensor_type;location;lat;lon;timestamp;P1;durP1;ratioP1;P2;durP2;ratioP2
23044;SDS011;11690;51.716;23.066;2022-07-24T00:02:25;10.30;;;9.13;;
23044;SDS011;11690;51.716;23.066;2022-07-24T00:04:52;11.07;;;9.30;;
23044;SDS011;11690;51.716;23.066;2022-07-24T00:07:24;10.85;;;9.73;;
23044;SDS011;11690;51.716;23.066;2022-07-24T00:09:52;12.25;;;10.82;;
23044;SDS011;11690;51.716;23.066;2022-07-24T00:12:19;14.02;;;10.63;;
23044;SDS011;11690;51.716;23.066;2022-07-24T00:14:46;12.65;;;10.20;;
23044;SDS011;11690;51.716;23.066;2022-07-24T00:17:13;14.63;;;10.85;;
23044;SDS011;11690;51.716;23.066;2022-07-24T00:19:40;14.55;;;10.80;;
23044;SDS011;11690;51.716;23.066;2022-07-24T00:22:07;15.02;;;11.88;;
23044;SDS011;11690;51.716;23.066;2022-07-24T00:24:34;14.70;;;11.18;;
23044;SDS011;11690;51.716;23.066;2022-07-24T00:27:01;17.52;;;11.68;;
23044;SDS011;11690;51.716;23.066;2022-07-24T00:29:28;15.10;;;11.00;;
23044;SDS011;11690;51.716;23.066;2022-07-24T00:31:55;18.92;;;11.20;;
23044;SDS011;11690;51.716;23.066;2022-07-24T00:34:22;14.20;;;11.75;;
23044;SDS011;11690;51.716;23.066;2022-07-24T00:36:49;15.93;;;12.05;;
23044;SDS011;11690;51.716;23.066;2022-07-24T00:39:16;16.02;;;10.98;;
23044;SDS011;11690;51.716;23.066;2022-07-24T00:41:43;13.85;;;10.93;;
23044;SDS011;11690;51.716;23.066;2022-07-24T00:44:12;15.13;;;10.57;;
23044;SDS011;11690;51.716;23.066;2022-07-24T00:46:42;13.95;;;10.63;;
23044;SDS011;11690;51.716;23.066;2022-07-24T00:49:11;12.85;;;11.20;;
23044;SDS011;11690;51.716;23.066;2022-07-24T00:51:48;12.90;;;10.05;;
23044;SDS011;11690;51.716;23.066;2022-07-24T00:54:16;13.70;;;10.85;;
23044;SDS011;11690;51.716;23.066;2022-07-24T00:56:45;13.38;;;10.48;;
23044;SDS011;11690;51.716;23.066;2022-07-24T00:59:13;12.27;;;10.98;;
23044;SDS011;11690;51.716;23.066;2022-07-24T01:01:40;16.95;;;11.38;;
23044;SDS011;11690;51.716;23.066;2022-07-24T01:04:07;15.98;;;12.05;;
23044;SDS011;11690;51.716;23.066;2022-07-24T01:06:42;14.00;;;11.15;;
23044;SDS011;11690;51.716;23.066;2022-07-24T01:09:10;18.70;;;11.65;;
23044;SDS011;11690;51.716;23.066;2022-07-24T01:11:38;16.98;;;12.13;;
23044;SDS011;11690;51.716;23.066;2022-07-24T01:14:06;16.75;;;12.18;;
23044;SDS011;11690;51.716;23.066;2022-07-24T01:16:33;13.80;;;12.15;;
23044;SDS011;11690;51.716;23.066;2022-07-24T01:19:01;15.77;;;11.85;;
23044;SDS011;11690;51.716;23.066;2022-07-24T01:21:30;14.40;;;11.95;;
23044;SDS011;11690;51.716;23.066;2022-07-24T01:23:56;14.82;;;12.13;;
23044;SDS011;11690;51.716;23.066;2022-07-24T01:26:23;18.10;;;11.73;;
23044;SDS011;11690;51.716;23.066;2022-07-24T01:28:51;13.98;;;11.57;;
23044;SDS011;11690;51.716;23.066;2022-07-24T01:31:18;16.60;;;11.77;;
23044;SDS011;11690;51.716;23.066;2022-07-24T01:33:45;16.02;;;11.38;;
23044;SDS011;11690;51.716;23.066;2022-07-24T01:36:12;15.52;;;12.05;;
23044;SDS011;11690;51.716;23.066;2022-07-24T01:38:38;16.15;;;11.68;;
23044;SDS011;11690;51.716;23.066;2022-07-24T01:41:05;13.18;;;10.98;;
23044;SDS011;11690;51.716;23.066;2022-07-24T01:43:32;19.38;;;12.13;;
23044;SDS011;11690;51.716;23.066;2022-07-24T01:45:59;16.65;;;11.88;;
23044;SDS011;11690;51.716;23.066;2022-07-24T01:48:27;13.90;;;11.35;;
23044;SDS011;11690;51.716;23.066;2022-07-24T01:50:54;16.75;;;11.60;;
23044;SDS011;11690;51.716;23.066;2022-07-24T01:53:21;14.55;;;11.38;;
23044;SDS011;11690;51.716;23.066;2022-07-24T01:55:51;14.98;;;11.68;;
23044;SDS011;11690;51.716;23.066;2022-07-24T01:58:19;14.05;;;12.25;;
23044;SDS011;11690;51.716;23.066;2022-07-24T02:00:48;16.48;;;12.10;;
23044;SDS011;11690;51.716;23.066;2022-07-24T02:03:17;14.73;;;11.48;;
23044;SDS011;11690;51.716;23.066;2022-07-24T02:05:44;15.05;;;12.00;;
23044;SDS011;11690;51.716;23.066;2022-07-24T02:08:11;15.63;;;12.63;;
23044;SDS011;11690;51.716;23.066;2022-07-24T02:10:38;16.73;;;11.40;;
23044;SDS011;11690;51.716;23.066;2022-07-24T02:13:06;16.63;;;11.50;;
23044;SDS011;11690;51.716;23.066;2022-07-24T02:15:33;13.90;;;11.73;;
23044;SDS011;11690;51.716;23.066;2022-07-24T02:18:01;11.88;;;10.63;;
23044;SDS011;11690;51.716;23.066;2022-07-24T02:20:29;15.88;;;11.93;;
23044;SDS011;11690;51.716;23.066;2022-07-24T02:22:56;16.35;;;11.90;;
23044;SDS011;11690;51.716;23.066;2022-07-24T02:25:23;19.13;;;11.65;;
23044;SDS011;11690;51.716;23.066;2022-07-24T02:27:50;13.40;;;11.60;;
23044;SDS011;11690;51.716;23.066;2022-07-24T02:30:20;11.90;;;10.68;;
23044;SDS011;11690;51.716;23.066;2022-07-24T02:32:48;15.43;;;11.80;;
23044;SDS011;11690;51.716;23.066;2022-07-24T02:35:15;15.30;;;10.88;;
23044;SDS011;11690;51.716;23.066;2022-07-24T02:37:43;12.38;;;10.45;;
23044;SDS011;11690;51.716;23.066;2022-07-24T02:40:11;12.80;;;10.25;;
23044;SDS011;11690;51.716;23.066;2022-07-24T02:42:39;14.43;;;10.65;;
23044;SDS011;11690;51.716;23.066;2022-07-24T02:45:06;12.82;;;11.20;;
23044;SDS011;11690;51.716;23.066;2022-07-24T02:47:34;14.45;;;11.38;;
23044;SDS011;11690;51.716;23.066;2022-07-24T02:50:02;13.82;;;11.18;;
23044;SDS011;11690;51.716;23.066;2022-07-24T02:52:29;17.90;;;11.38;;
23044;SDS011;11690;51.716;23.066;2022-07-24T02:54:56;15.55;;;10.60;;
23044;SDS011;11690;51.716;23.066;2022-07-24T02:57:23;14.95;;;10.07;;
23044;SDS011;11690;51.716;23.066;2022-07-24T02:59:50;15.35;;;10.52;;
23044;SDS011;11690;51.716;23.066;2022-07-24T03:02:19;12.07;;;9.93;;
23044;SDS011;11690;51.716;23.066;2022-07-24T03:04:46;14.55;;;10.68;;
23044;SDS011;11690;51.716;23.066;2022-07-24T03:07:13;12.73;;;9.93;;
23044;SDS011;11690;51.716;23.066;2022-07-24T03:09:41;11.90;;;10.18;;
23044;SDS011;11690;51.716;23.066;2022-07-24T03:12:08;11.50;;;10.13;;
23044;SDS011;11690;51.716;23.066;2022-07-24T03:14:35;14.68;;;10.32;;
23044;SDS011;11690;51.716;23.066;2022-07-24T03:17:04;14.38;;;10.63;;
23044;SDS011;11690;51.716;23.066;2022-07-24T03:19:32;13.07;;;10.40;;
23044;SDS011;11690;51.716;23.066;2022-07-24T03:21:59;12.60;;;10.82;;
23044;SDS011;11690;51.716;23.066;2022-07-24T03:24:25;17.23;;;11.95;;
23044;SDS011;11690;51.716;23.066;2022-07-24T03:26:53;16.52;;;11.68;;
23044;SDS011;11690;51.716;23.066;2022-07-24T03:29:20;15.48;;;12.55;;
23044;SDS011;11690;51.716;23.066;2022-07-24T03:31:47;13.20;;;11.45;;
23044;SDS011;11690;51.716;23.066;2022-07-24T03:34:14;15.82;;;11.93;;
23044;SDS011;11690;51.716;23.066;2022-07-24T03:36:41;14.10;;;11.60;;
23044;SDS011;11690;51.716;23.066;2022-07-24T03:39:08;14.52;;;12.02;;
23044;SDS011;11690;51.716;23.066;2022-07-24T03:41:35;15.98;;;11.88;;
23044;SDS011;11690;51.716;23.066;2022-07-24T03:44:02;14.25;;;11.52;;
23044;SDS011;11690;51.716;23.066;2022-07-24T03:46:30;16.17;;;11.55;;
23044;SDS011;11690;51.716;23.066;2022-07-24T03:48:57;16.30;;;11.77;;
23044;SDS011;11690;51.716;23.066;2022-07-24T03:51:25;13.80;;;11.10;;
23044;SDS011;11690;51.716;23.066;2022-07-24T03:53:53;13.85;;;11.48;;
23044;SDS011;11690;51.716;23.066;2022-07-24T03:56:21;14.77;;;11.57;;
23044;SDS011;11690;51.716;23.066;2022-07-24T03:58:52;12.93;;;10.65;;
23044;SDS011;11690;51.716;23.066;2022-07-24T04:01:19;13.25;;;11.75;;
23044;SDS011;11690;51.716;23.066;2022-07-24T04:03:47;14.27;;;11.35;;
23044;SDS011;11690;51.716;23.066;2022-07-24T04:06:14;13.20;;;11.57;;
23044;SDS011;11690;51.716;23.066;2022-07-24T04:08:41;13.88;;;10.40;;
23044;SDS011;11690;51.716;23.066;2022-07-24T04:11:08;10.65;;;9.43;;
23044;SDS011;11690;51.716;23.066;2022-07-24T04:13:35;11.30;;;9.48;;
23044;SDS011;11690;51.716;23.066;2022-07-24T04:16:08;14.52;;;9.23;;
23044;SDS011;11690;51.716;23.066;2022-07-24T04:18:35;11.98;;;9.57;;
23044;SDS011;11690;51.716;23.066;2022-07-24T04:21:02;10.57;;;8.70;;
23044;SDS011;11690;51.716;23.066;2022-07-24T04:23:29;16.08;;;9.52;;
23044;SDS011;11690;51.716;23.066;2022-07-24T04:25:56;16.42;;;9.40;;
23044;SDS011;11690;51.716;23.066;2022-07-24T04:28:23;11.15;;;9.98;;
23044;SDS011;11690;51.716;23.066;2022-07-24T04:30:50;10.15;;;9.15;;
23044;SDS011;11690;51.716;23.066;2022-07-24T04:33:18;12.93;;;9.35;;
23044;SDS011;11690;51.716;23.066;2022-07-24T04:35:44;11.50;;;9.25;;
23044;SDS011;11690;51.716;23.066;2022-07-24T04:38:11;13.65;;;10.13;;
23044;SDS011;11690;51.716;23.066;2022-07-24T04:40:39;12.88;;;9.90;;
23044;SDS011;11690;51.716;23.066;2022-07-24T04:43:05;13.63;;;10.75;;
23044;SDS011;11690;51.716;23.066;2022-07-24T04:45:36;13.25;;;10.90;;
23044;SDS011;11690;51.716;23.066;2022-07-24T04:48:04;12.98;;;10.60;;
23044;SDS011;11690;51.716;23.066;2022-07-24T04:50:31;14.90;;;11.20;;
23044;SDS011;11690;51.716;23.066;2022-07-24T04:52:58;13.90;;;12.05;;
23044;SDS011;11690;51.716;23.066;2022-07-24T04:55:25;12.68;;;11.38;;
23044;SDS011;11690;51.716;23.066;2022-07-24T04:57:52;13.88;;;11.98;;
23044;SDS011;11690;51.716;23.066;2022-07-24T05:00:19;15.50;;;10.82;;
23044;SDS011;11690;51.716;23.066;2022-07-24T05:02:46;16.05;;;11.48;;
23044;SDS011;11690;51.716;23.066;2022-07-24T05:05:13;18.25;;;10.43;;
23044;SDS011;11690;51.716;23.066;2022-07-24T05:07:41;16.55;;;11.38;;
23044;SDS011;11690;51.716;23.066;2022-07-24T05:10:08;18.50;;;11.73;;
23044;SDS011;11690;51.716;23.066;2022-07-24T05:12:35;17.48;;;12.45;;
23044;SDS011;11690;51.716;23.066;2022-07-24T05:15:03;21.90;;;14.07;;
23044;SDS011;11690;51.716;23.066;2022-07-24T05:17:31;21.05;;;14.73;;
23044;SDS011;11690;51.716;23.066;2022-07-24T05:19:58;16.20;;;13.93;;
23044;SDS011;11690;51.716;23.066;2022-07-24T05:22:25;22.95;;;14.80;;
23044;SDS011;11690;51.716;23.066;2022-07-24T05:24:52;23.45;;;15.85;;
23044;SDS011;11690;51.716;23.066;2022-07-24T05:27:19;19.10;;;15.07;;
23044;SDS011;11690;51.716;23.066;2022-07-24T05:29:46;24.85;;;16.52;;
23044;SDS011;11690;51.716;23.066;2022-07-24T05:32:13;23.10;;;16.83;;
23044;SDS011;11690;51.716;23.066;2022-07-24T05:34:40;20.40;;;15.85;;
23044;SDS011;11690;51.716;23.066;2022-07-24T05:37:08;18.85;;;15.38;;
23044;SDS011;11690;51.716;23.066;2022-07-24T05:39:35;18.50;;;14.75;;
23044;SDS011;11690;51.716;23.066;2022-07-24T05:42:02;17.38;;;14.25;;
23044;SDS011;11690;51.716;23.066;2022-07-24T05:44:30;16.95;;;11.55;;
23044;SDS011;11690;51.716;23.066;2022-07-24T05:46:57;13.88;;;10.68;;
23044;SDS011;11690;51.716;23.066;2022-07-24T05:49:24;10.82;;;8.18;;
23044;SDS011;11690;51.716;23.066;2022-07-24T05:51:52;8.73;;;5.80;;
23044;SDS011;11690;51.716;23.066;2022-07-24T05:54:19;5.38;;;3.78;;
23044;SDS011;11690;51.716;23.066;2022-07-24T05:56:46;6.00;;;3.92;;
23044;SDS011;11690;51.716;23.066;2022-07-24T05:59:13;3.90;;;2.78;;
23044;SDS011;11690;51.716;23.066;2022-07-24T06:01:40;9.90;;;2.63;;
23044;SDS011;11690;51.716;23.066;2022-07-24T06:04:07;3.03;;;2.17;;
23044;SDS011;11690;51.716;23.066;2022-07-24T06:06:34;3.63;;;1.70;;
23044;SDS011;11690;51.716;23.066;2022-07-24T06:09:02;6.88;;;1.75;;
23044;SDS011;11690;51.716;23.066;2022-07-24T06:11:30;4.13;;;1.55;;
23044;SDS011;11690;51.716;23.066;2022-07-24T06:13:57;3.55;;;1.70;;
23044;SDS011;11690;51.716;23.066;2022-07-24T06:16:25;6.05;;;1.73;;
23044;SDS011;11690;51.716;23.066;2022-07-24T06:18:52;2.88;;;1.40;;
23044;SDS011;11690;51.716;23.066;2022-07-24T06:21:19;3.28;;;1.33;;
23044;SDS011;11690;51.716;23.066;2022-07-24T06:23:46;3.53;;;1.50;;
23044;SDS011;11690;51.716;23.066;2022-07-24T06:26:13;4.40;;;1.20;;
23044;SDS011;11690;51.716;23.066;2022-07-24T06:28:40;4.78;;;1.10;;
23044;SDS011;11690;51.716;23.066;2022-07-24T06:31:07;13.70;;;2.25;;
23044;SDS011;11690;51.716;23.066;2022-07-24T06:33:42;3.60;;;1.10;;
23044;SDS011;11690;51.716;23.066;2022-07-24T06:36:09;3.38;;;1.20;;
23044;SDS011;11690;51.716;23.066;2022-07-24T06:38:36;11.32;;;1.30;;
23044;SDS011;11690;51.716;23.066;2022-07-24T06:41:03;3.50;;;1.10;;
23044;SDS011;11690;51.716;23.066;2022-07-24T06:43:30;4.22;;;1.52;;
23044;SDS011;11690;51.716;23.066;2022-07-24T06:45:57;4.40;;;1.35;;
23044;SDS011;11690;51.716;23.066;2022-07-24T06:48:24;5.55;;;1.10;;
23044;SDS011;11690;51.716;23.066;2022-07-24T06:50:51;6.25;;;1.65;;
23044;SDS011;11690;51.716;23.066;2022-07-24T06:53:18;6.22;;;1.77;;
23044;SDS011;11690;51.716;23.066;2022-07-24T06:55:45;8.23;;;1.48;;
23044;SDS011;11690;51.716;23.066;2022-07-24T06:58:13;2.92;;;1.35;;
23044;SDS011;11690;51.716;23.066;2022-07-24T07:00:40;4.80;;;1.52;;
23044;SDS011;11690;51.716;23.066;2022-07-24T07:03:07;5.82;;;1.15;;
23044;SDS011;11690;51.716;23.066;2022-07-24T07:05:34;7.43;;;1.13;;
23044;SDS011;11690;51.716;23.066;2022-07-24T07:08:01;3.28;;;1.10;;
23044;SDS011;11690;51.716;23.066;2022-07-24T07:10:28;4.93;;;1.00;;
23044;SDS011;11690;51.716;23.066;2022-07-24T07:12:56;8.90;;;1.67;;
23044;SDS011;11690;51.716;23.066;2022-07-24T07:15:23;8.15;;;1.52;;
23044;SDS011;11690;51.716;23.066;2022-07-24T07:17:50;8.57;;;1.30;;
23044;SDS011;11690;51.716;23.066;2022-07-24T07:20:17;5.30;;;1.15;;
23044;SDS011;11690;51.716;23.066;2022-07-24T07:22:44;6.30;;;1.13;;
23044;SDS011;11690;51.716;23.066;2022-07-24T07:25:11;3.65;;;1.20;;
23044;SDS011;11690;51.716;23.066;2022-07-24T07:27:38;4.25;;;1.30;;
23044;SDS011;11690;51.716;23.066;2022-07-24T07:30:06;6.80;;;1.38;;
23044;SDS011;11690;51.716;23.066;2022-07-24T07:32:34;1.42;;;1.00;;
23044;SDS011;11690;51.716;23.066;2022-07-24T07:35:01;4.07;;;1.17;;
23044;SDS011;11690;51.716;23.066;2022-07-24T07:37:30;6.28;;;1.05;;
23044;SDS011;11690;51.716;23.066;2022-07-24T07:39:58;11.02;;;1.70;;
23044;SDS011;11690;51.716;23.066;2022-07-24T07:42:25;5.57;;;1.50;;
23044;SDS011;11690;51.716;23.066;2022-07-24T07:44:52;4.53;;;1.20;;
23044;SDS011;11690;51.716;23.066;2022-07-24T07:47:19;4.28;;;1.38;;
23044;SDS011;11690;51.716;23.066;2022-07-24T07:49:46;10.40;;;1.75;;
23044;SDS011;11690;51.716;23.066;2022-07-24T07:52:13;5.82;;;1.15;;
23044;SDS011;11690;51.716;23.066;2022-07-24T07:54:40;4.55;;;1.40;;
23044;SDS011;11690;51.716;23.066;2022-07-24T07:57:08;4.10;;;1.52;;
23044;SDS011;11690;51.716;23.066;2022-07-24T07:59:35;6.75;;;1.40;;
23044;SDS011;11690;51.716;23.066;2022-07-24T08:02:01;4.85;;;1.33;;
23044;SDS011;11690;51.716;23.066;2022-07-24T08:04:29;5.05;;;1.23;;
23044;SDS011;11690;51.716;23.066;2022-07-24T08:06:57;5.68;;;1.42;;
23044;SDS011;11690;51.716;23.066;2022-07-24T08:09:25;7.13;;;1.67;;
23044;SDS011;11690;51.716;23.066;2022-07-24T08:11:52;8.10;;;1.88;;
23044;SDS011;11690;51.716;23.066;2022-07-24T08:14:19;4.57;;;1.55;;
23044;SDS011;11690;51.716;23.066;2022-07-24T08:16:46;7.97;;;1.58;;
23044;SDS011;11690;51.716;23.066;2022-07-24T08:19:13;2.47;;;1.10;;
23044;SDS011;11690;51.716;23.066;2022-07-24T08:21:40;5.05;;;1.65;;
23044;SDS011;11690;51.716;23.066;2022-07-24T08:24:06;6.55;;;1.20;;
23044;SDS011;11690;51.716;23.066;2022-07-24T08:26:34;8.63;;;1.50;;
23044;SDS011;11690;51.716;23.066;2022-07-24T08:29:01;9.98;;;1.88;;
23044;SDS011;11690;51.716;23.066;2022-07-24T08:31:28;3.80;;;1.13;;
23044;SDS011;11690;51.716;23.066;2022-07-24T08:33:56;10.57;;;1.80;;
23044;SDS011;11690;51.716;23.066;2022-07-24T08:36:23;8.80;;;1.35;;
23044;SDS011;11690;51.716;23.066;2022-07-24T08:38:50;5.78;;;1.13;;
23044;SDS011;11690;51.716;23.066;2022-07-24T08:41:17;2.47;;;1.30;;
23044;SDS011;11690;51.716;23.066;2022-07-24T08:43:52;3.17;;;1.23;;
23044;SDS011;11690;51.716;23.066;2022-07-24T08:46:19;5.72;;;1.27;;
23044;SDS011;11690;51.716;23.066;2022-07-24T08:48:47;4.43;;;1.40;;
23044;SDS011;11690;51.716;23.066;2022-07-24T08:51:14;3.10;;;1.13;;
23044;SDS011;11690;51.716;23.066;2022-07-24T08:53:42;3.80;;;1.05;;
23044;SDS011;11690;51.716;23.066;2022-07-24T08:56:10;3.15;;;1.42;;
23044;SDS011;11690;51.716;23.066;2022-07-24T08:58:37;7.10;;;1.30;;
23044;SDS011;11690;51.716;23.066;2022-07-24T09:01:06;3.35;;;1.10;;
23044;SDS011;11690;51.716;23.066;2022-07-24T09:03:40;2.85;;;1.08;;
23044;SDS011;11690;51.716;23.066;2022-07-24T09:06:12;4.60;;;1.05;;
23044;SDS011;11690;51.716;23.066;2022-07-24T09:08:40;6.03;;;1.45;;
23044;SDS011;11690;51.716;23.066;2022-07-24T09:11:08;3.47;;;1.10;;
23044;SDS011;11690;51.716;23.066;2022-07-24T09:13:36;4.82;;;1.40;;
23044;SDS011;11690;51.716;23.066;2022-07-24T09:16:25;6.45;;;1.27;;
23044;SDS011;11690;51.716;23.066;2022-07-24T09:19:06;3.78;;;1.10;;
23044;SDS011;11690;51.716;23.066;2022-07-24T09:21:41;3.55;;;1.17;;
23044;SDS011;11690;51.716;23.066;2022-07-24T09:26:57;4.00;;;0.93;;
23044;SDS011;11690;51.716;23.066;2022-07-24T09:29:25;4.93;;;1.40;;
23044;SDS011;11690;51.716;23.066;2022-07-24T09:34:23;2.33;;;1.20;;
23044;SDS011;11690;51.716;23.066;2022-07-24T09:37:05;3.50;;;0.90;;
23044;SDS011;11690;51.716;23.066;2022-07-24T09:39:34;2.33;;;0.98;;
23044;SDS011;11690;51.716;23.066;2022-07-24T09:42:03;2.72;;;1.00;;
23044;SDS011;11690;51.716;23.066;2022-07-24T09:44:31;4.90;;;1.30;;
23044;SDS011;11690;51.716;23.066;2022-07-24T09:49:27;3.30;;;1.10;;
23044;SDS011;11690;51.716;23.066;2022-07-24T09:54:50;5.82;;;1.02;;
23044;SDS011;11690;51.716;23.066;2022-07-24T09:57:19;7.82;;;1.35;;
23044;SDS011;11690;51.716;23.066;2022-07-24T09:59:51;4.45;;;1.08;;
23044;SDS011;11690;51.716;23.066;2022-07-24T10:02:24;6.63;;;1.02;;
23044;SDS011;11690;51.716;23.066;2022-07-24T10:04:53;5.72;;;1.10;;
23044;SDS011;11690;51.716;23.066;2022-07-24T10:07:21;5.93;;;1.00;;
23044;SDS011;11690;51.716;23.066;2022-07-24T10:09:50;2.70;;;0.93;;
23044;SDS011;11690;51.716;23.066;2022-07-24T10:12:19;8.75;;;1.20;;
23044;SDS011;11690;51.716;23.066;2022-07-24T10:14:48;2.80;;;1.13;;
23044;SDS011;11690;51.716;23.066;2022-07-24T10:17:17;3.35;;;1.00;;
23044;SDS011;11690;51.716;23.066;2022-07-24T10:19:50;1.35;;;0.90;;
23044;SDS011;11690;51.716;23.066;2022-07-24T10:22:20;4.03;;;1.10;;
23044;SDS011;11690;51.716;23.066;2022-07-24T10:27:31;4.95;;;1.30;;
23044;SDS011;11690;51.716;23.066;2022-07-24T10:30:03;8.40;;;1.20;;
23044;SDS011;11690;51.716;23.066;2022-07-24T10:32:33;1.65;;;1.00;;
23044;SDS011;11690;51.716;23.066;2022-07-24T10:37:53;2.45;;;1.17;;
23044;SDS011;11690;51.716;23.066;2022-07-24T10:40:30;5.47;;;1.23;;
23044;SDS011;11690;51.716;23.066;2022-07-24T10:43:08;10.63;;;1.13;;
23044;SDS011;11690;51.716;23.066;2022-07-24T10:45:36;3.58;;;0.90;;
23044;SDS011;11690;51.716;23.066;2022-07-24T11:03:57;2.25;;;0.80;;
23044;SDS011;11690;51.716;23.066;2022-07-24T11:06:38;2.08;;;1.02;;
23044;SDS011;11690;51.716;23.066;2022-07-24T11:09:07;2.92;;;0.98;;
23044;SDS011;11690;51.716;23.066;2022-07-24T11:11:39;5.90;;;1.35;;
23044;SDS011;11690;51.716;23.066;2022-07-24T11:14:09;3.35;;;0.98;;
23044;SDS011;11690;51.716;23.066;2022-07-24T11:16:37;1.70;;;1.00;;
23044;SDS011;11690;51.716;23.066;2022-07-24T11:21:36;1.95;;;0.98;;
23044;SDS011;11690;51.716;23.066;2022-07-24T11:31:55;1.63;;;1.08;;
23044;SDS011;11690;51.716;23.066;2022-07-24T11:34:25;3.03;;;0.82;;
23044;SDS011;11690;51.716;23.066;2022-07-24T11:36:53;1.40;;;1.10;;
23044;SDS011;11690;51.716;23.066;2022-07-24T11:39:26;2.95;;;1.05;;
23044;SDS011;11690;51.716;23.066;2022-07-24T11:42:00;2.00;;;0.98;;
23044;SDS011;11690;51.716;23.066;2022-07-24T11:44:32;3.10;;;0.90;;
23044;SDS011;11690;51.716;23.066;2022-07-24T11:47:11;2.53;;;1.10;;
23044;SDS011;11690;51.716;23.066;2022-07-24T11:49:47;1.42;;;1.00;;
23044;SDS011;11690;51.716;23.066;2022-07-24T11:54:53;4.47;;;0.70;;
23044;SDS011;11690;51.716;23.066;2022-07-24T11:57:25;2.63;;;0.88;;
23044;SDS011;11690;51.716;23.066;2022-07-24T12:00:15;2.63;;;0.75;;
23044;SDS011;11690;51.716;23.066;2022-07-24T12:02:44;1.92;;;0.57;;
23044;SDS011;11690;51.716;23.066;2022-07-24T12:05:25;2.30;;;0.80;;
23044;SDS011;11690;51.716;23.066;2022-07-24T12:07:56;3.63;;;0.90;;
23044;SDS011;11690;51.716;23.066;2022-07-24T12:10:25;1.95;;;0.68;;
23044;SDS011;11690;51.716;23.066;2022-07-24T12:12:54;1.48;;;1.08;;
23044;SDS011;11690;51.716;23.066;2022-07-24T12:15:22;1.80;;;0.95;;
23044;SDS011;11690;51.716;23.066;2022-07-24T12:20:48;3.67;;;0.70;;
23044;SDS011;11690;51.716;23.066;2022-07-24T12:23:16;2.28;;;0.88;;
23044;SDS011;11690;51.716;23.066;2022-07-24T12:25:46;4.60;;;0.85;;
23044;SDS011;11690;51.716;23.066;2022-07-24T12:28:14;1.45;;;0.80;;
23044;SDS011;11690;51.716;23.066;2022-07-24T12:30:49;1.10;;;0.60;;
23044;SDS011;11690;51.716;23.066;2022-07-24T12:33:26;1.60;;;0.70;;
23044;SDS011;11690;51.716;23.066;2022-07-24T12:35:59;1.67;;;0.90;;
23044;SDS011;11690;51.716;23.066;2022-07-24T12:38:35;1.02;;;0.60;;
23044;SDS011;11690;51.716;23.066;2022-07-24T12:41:09;1.90;;;0.70;;
23044;SDS011;11690;51.716;23.066;2022-07-24T12:46:14;1.00;;;0.90;;
23044;SDS011;11690;51.716;23.066;2022-07-24T12:48:55;1.85;;;0.80;;
23044;SDS011;11690;51.716;23.066;2022-07-24T12:56:48;0.70;;;0.70;;
23044;SDS011;11690;51.716;23.066;2022-07-24T12:59:29;1.33;;;0.65;;
23044;SDS011;11690;51.716;23.066;2022-07-24T13:02:02;2.70;;;0.80;;
23044;SDS011;11690;51.716;23.066;2022-07-24T13:04:32;2.00;;;0.80;;
23044;SDS011;11690;51.716;23.066;2022-07-24T13:07:06;2.28;;;0.80;;
23044;SDS011;11690;51.716;23.066;2022-07-24T13:09:35;1.13;;;0.75;;
23044;SDS011;11690;51.716;23.066;2022-07-24T13:12:04;9.27;;;1.00;;
23044;SDS011;11690;51.716;23.066;2022-07-24T13:14:32;1.30;;;0.80;;
23044;SDS011;11690;51.716;23.066;2022-07-24T13:17:09;2.60;;;1.05;;
23044;SDS011;11690;51.716;23.066;2022-07-24T13:19:42;1.58;;;0.70;;
23044;SDS011;11690;51.716;23.066;2022-07-24T13:22:12;1.63;;;0.85;;
23044;SDS011;11690;51.716;23.066;2022-07-24T13:24:39;2.97;;;0.82;;
23044;SDS011;11690;51.716;23.066;2022-07-24T13:27:08;1.70;;;0.73;;
23044;SDS011;11690;51.716;23.066;2022-07-24T13:29:36;3.50;;;1.02;;
23044;SDS011;11690;51.716;23.066;2022-07-24T13:32:03;4.90;;;0.85;;
23044;SDS011;11690;51.716;23.066;2022-07-24T13:34:32;3.33;;;1.00;;
23044;SDS011;11690;51.716;23.066;2022-07-24T13:37:02;2.58;;;0.60;;
23044;SDS011;11690;51.716;23.066;2022-07-24T13:39:33;5.82;;;0.70;;
23044;SDS011;11690;51.716;23.066;2022-07-24T13:42:02;2.05;;;0.77;;
23044;SDS011;11690;51.716;23.066;2022-07-24T13:44:29;4.25;;;0.98;;
23044;SDS011;11690;51.716;23.066;2022-07-24T13:46:57;2.88;;;0.73;;
23044;SDS011;11690;51.716;23.066;2022-07-24T13:49:24;3.55;;;0.80;;
23044;SDS011;11690;51.716;23.066;2022-07-24T13:51:51;0.90;;;0.70;;
23044;SDS011;11690;51.716;23.066;2022-07-24T13:54:18;1.77;;;0.70;;
23044;SDS011;11690;51.716;23.066;2022-07-24T13:56:45;2.05;;;0.68;;
23044;SDS011;11690;51.716;23.066;2022-07-24T13:59:12;1.13;;;0.57;;
23044;SDS011;11690;51.716;23.066;2022-07-24T14:01:40;2.67;;;0.93;;
23044;SDS011;11690;51.716;23.066;2022-07-24T14:04:07;0.80;;;0.57;;
23044;SDS011;11690;51.716;23.066;2022-07-24T14:06:55;4.00;;;0.90;;
23044;SDS011;11690;51.716;23.066;2022-07-24T14:09:22;0.70;;;0.60;;
23044;SDS011;11690;51.716;23.066;2022-07-24T14:11:50;1.90;;;0.70;;
23044;SDS011;11690;51.716;23.066;2022-07-24T14:14:17;3.47;;;0.70;;
23044;SDS011;11690;51.716;23.066;2022-07-24T14:16:45;2.90;;;0.70;;
23044;SDS011;11690;51.716;23.066;2022-07-24T14:19:13;4.15;;;0.80;;
23044;SDS011;11690;51.716;23.066;2022-07-24T14:21:40;2.60;;;0.75;;
23044;SDS011;11690;51.716;23.066;2022-07-24T14:24:07;1.05;;;0.68;;
23044;SDS011;11690;51.716;23.066;2022-07-24T14:26:42;1.38;;;0.77;;
23044;SDS011;11690;51.716;23.066;2022-07-24T14:29:09;5.40;;;0.80;;
23044;SDS011;11690;51.716;23.066;2022-07-24T14:31:37;1.42;;;0.60;;
23044;SDS011;11690;51.716;23.066;2022-07-24T14:34:04;3.45;;;0.82;;
23044;SDS011;11690;51.716;23.066;2022-07-24T14:36:31;1.30;;;0.80;;
23044;SDS011;11690;51.716;23.066;2022-07-24T14:38:58;2.15;;;0.90;;
23044;SDS011;11690;51.716;23.066;2022-07-24T14:41:25;3.38;;;0.82;;
23044;SDS011;11690;51.716;23.066;2022-07-24T14:43:52;2.17;;;0.80;;
23044;SDS011;11690;51.716;23.066;2022-07-24T14:46:19;2.80;;;0.93;;
23044;SDS011;11690;51.716;23.066;2022-07-24T14:48:46;2.58;;;0.70;;
23044;SDS011;11690;51.716;23.066;2022-07-24T14:51:13;1.05;;;0.80;;
23044;SDS011;11690;51.716;23.066;2022-07-24T14:53:40;6.50;;;0.82;;
23044;SDS011;11690;51.716;23.066;2022-07-24T14:56:07;1.30;;;0.77;;
23044;SDS011;11690;51.716;23.066;2022-07-24T14:58:34;1.88;;;0.70;;
23044;SDS011;11690;51.716;23.066;2022-07-24T15:01:02;1.30;;;0.90;;
23044;SDS011;11690;51.716;23.066;2022-07-24T15:03:29;0.80;;;0.80;;
23044;SDS011;11690;51.716;23.066;2022-07-24T15:05:56;1.80;;;1.00;;
23044;SDS011;11690;51.716;23.066;2022-07-24T15:08:23;1.02;;;0.90;;
23044;SDS011;11690;51.716;23.066;2022-07-24T15:10:51;1.23;;;0.98;;
23044;SDS011;11690;51.716;23.066;2022-07-24T15:13:18;8.50;;;1.58;;
23044;SDS011;11690;51.716;23.066;2022-07-24T15:15:45;1.77;;;1.00;;
23044;SDS011;11690;51.716;23.066;2022-07-24T15:18:12;2.63;;;0.85;;
23044;SDS011;11690;51.716;23.066;2022-07-24T15:20:39;4.22;;;0.85;;
23044;SDS011;11690;51.716;23.066;2022-07-24T15:23:05;1.33;;;0.80;;
23044;SDS011;11690;51.716;23.066;2022-07-24T15:25:33;1.83;;;0.90;;
23044;SDS011;11690;51.716;23.066;2022-07-24T15:28:00;0.75;;;0.75;;